createdAt,value
2023-01-19T00:00:46.193Z,68.75
2023-01-19T00:03:16.397Z,68.54
2023-01-19T00:05:44.012Z,68.18
2023-01-19T00:08:14.851Z,67.98
2023-01-19T00:10:43.854Z,67.81
2023-01-19T00:13:10.793Z,68.24
2023-01-19T00:15:37.620Z,69.72
2023-01-19T00:18:04.499Z,70.67
2023-01-19T00:20:32.973Z,68.90
2023-01-19T00:23:00.087Z,70.32
2023-01-19T00:25:26.873Z,68.40
2023-01-19T00:27:53.447Z,68.52
2023-01-19T00:30:20.058Z,68.64
2023-01-19T00:32:46.619Z,69.67
2023-01-19T00:35:13.148Z,67.85
2023-01-19T00:37:39.862Z,69.62
2023-01-19T00:40:07.615Z,67.29
2023-01-19T00:42:40.168Z,68.06
2023-01-19T00:45:15.291Z,66.42
2023-01-19T00:47:42.319Z,66.18
2023-01-19T00:50:13.758Z,67.20
2023-01-19T00:52:41.751Z,66.77
2023-01-19T00:55:10.335Z,66.77
2023-01-19T00:57:37.802Z,68.55
2023-01-19T01:00:07.138Z,68.04
2023-01-19T01:02:34.302Z,67.65
2023-01-19T01:05:02.989Z,66.80
2023-01-19T01:07:30.620Z,67.34
2023-01-19T01:09:57.502Z,67.64
2023-01-19T01:12:24.631Z,68.81
2023-01-19T01:14:51.236Z,67.25
2023-01-19T01:17:17.904Z,67.67
2023-01-19T01:19:44.476Z,69.32
2023-01-19T01:22:11.249Z,69.18
2023-01-19T01:24:38.246Z,69.87
2023-01-19T01:27:04.783Z,69.34
2023-01-19T01:29:31.399Z,70.06
2023-01-19T01:31:58.109Z,68.75
2023-01-19T01:34:24.683Z,69.22
2023-01-19T01:36:51.576Z,69.71
2023-01-19T01:39:18.135Z,69.71
2023-01-19T01:41:44.713Z,70.24
2023-01-19T01:44:50.047Z,69.92
2023-01-19T01:47:42.887Z,68.52
2023-01-19T01:50:28.675Z,70.03
2023-01-19T01:53:09.185Z,69.03
2023-01-19T01:55:45.535Z,69.17
2023-01-19T01:58:13.368Z,68.84
2023-01-19T02:00:59.470Z,69.34
2023-01-19T02:03:27.448Z,69.39
2023-01-19T02:05:57.702Z,69.82
2023-01-19T02:09:01.183Z,69.14
2023-01-19T02:11:48.139Z,68.89
2023-01-19T02:14:14.852Z,69.08
2023-01-19T02:16:42.084Z,69.30
2023-01-19T02:19:13.456Z,69.44
2023-01-19T02:22:09.824Z,69.94
2023-01-19T02:24:36.719Z,70.27
2023-01-19T02:27:04.842Z,70.32
2023-01-19T02:29:32.962Z,70.36
2023-01-19T02:32:00.897Z,68.78
2023-01-19T02:34:28.150Z,68.31
2023-01-19T02:36:58.623Z,69.73
2023-01-19T02:39:59.042Z,68.56
2023-01-19T02:42:45.900Z,68.97
2023-01-19T02:45:15.262Z,70.91
2023-01-19T02:47:47.712Z,71.14
2023-01-19T02:50:31.623Z,70.05
2023-01-19T02:53:12.484Z,68.53
2023-01-19T02:55:40.761Z,69.53
2023-01-19T02:58:24.145Z,69.97
2023-01-19T03:01:02.758Z,69.64
2023-01-19T03:03:55.947Z,69.28
2023-01-19T03:06:30.949Z,70.43
2023-01-19T03:09:13.083Z,70.64
2023-01-19T03:11:43.728Z,69.87
2023-01-19T03:14:20.302Z,70.96
2023-01-19T03:16:51.231Z,71.63
2023-01-19T03:19:20.228Z,70.36
2023-01-19T03:21:52.407Z,68.72
2023-01-19T03:24:22.684Z,67.24
2023-01-19T03:26:57.937Z,69.21
2023-01-19T03:29:28.772Z,68.57
2023-01-19T03:31:57.356Z,69.75
2023-01-19T03:34:24.377Z,69.14
2023-01-19T03:36:55.142Z,69.49
2023-01-19T03:39:26.722Z,66.72
2023-01-19T03:41:58.408Z,68.18
2023-01-19T03:44:27.529Z,69.00
2023-01-19T03:46:55.928Z,68.46
2023-01-19T03:49:22.893Z,68.75
2023-01-19T03:51:49.588Z,70.61
2023-01-19T03:54:16.260Z,69.14
2023-01-19T03:56:44.616Z,69.66
2023-01-19T03:59:11.222Z,68.85
2023-01-19T04:01:37.965Z,71.33
2023-01-19T04:04:04.544Z,72.71
2023-01-19T04:06:32.122Z,71.90
2023-01-19T04:08:58.820Z,72.17
2023-01-19T04:11:25.530Z,72.05
2023-01-19T04:13:52.434Z,73.47
2023-01-19T04:16:21.131Z,73.67
2023-01-19T04:18:48.589Z,73.28
2023-01-19T04:21:15.696Z,73.21
2023-01-19T04:23:44.364Z,73.29
2023-01-19T04:26:10.914Z,75.85
2023-01-19T04:28:37.730Z,77.46
2023-01-19T04:31:05.997Z,77.35
2023-01-19T04:33:33.225Z,77.71
2023-01-19T04:36:00.028Z,75.99
2023-01-19T04:38:27.165Z,74.71
2023-01-19T04:40:54.652Z,74.08
2023-01-19T04:43:22.507Z,74.16
2023-01-19T04:45:49.471Z,72.64
2023-01-19T04:48:18.364Z,72.67
2023-01-19T04:50:45.125Z,71.60
2023-01-19T04:53:13.651Z,72.64
2023-01-19T04:55:40.806Z,71.29
2023-01-19T04:58:07.615Z,70.25
2023-01-19T05:00:34.198Z,70.65
2023-01-19T05:03:01.646Z,71.34
2023-01-19T05:05:29.188Z,72.45
2023-01-19T05:07:56.085Z,71.52
2023-01-19T05:10:23.738Z,70.98
2023-01-19T05:12:50.371Z,70.86
2023-01-19T05:15:16.991Z,72.09
2023-01-19T05:17:43.576Z,70.60
2023-01-19T05:20:13.307Z,70.41
2023-01-19T05:22:40.979Z,70.93
2023-01-19T05:25:10.906Z,70.26
2023-01-19T05:27:38.741Z,69.57
2023-01-19T05:30:06.422Z,70.85
2023-01-19T05:32:33.011Z,69.01
2023-01-19T05:34:59.699Z,69.22
2023-01-19T05:37:26.342Z,68.00
2023-01-19T05:39:53.714Z,71.14
2023-01-19T05:42:21.003Z,71.30
2023-01-19T05:44:47.726Z,70.52
2023-01-19T05:47:14.356Z,70.09
2023-01-19T05:49:41.176Z,70.92
2023-01-19T05:52:07.833Z,72.65
2023-01-19T05:54:34.418Z,72.91
2023-01-19T05:57:01.827Z,71.31
2023-01-19T05:59:28.527Z,71.04
2023-01-19T06:01:55.293Z,72.06
2023-01-19T06:04:22.087Z,72.53
2023-01-19T06:06:49.210Z,72.44
2023-01-19T06:09:17.307Z,71.08
2023-01-19T06:11:45.007Z,70.67
2023-01-19T06:14:11.990Z,71.86
2023-01-19T06:16:38.859Z,71.77
2023-01-19T06:19:05.576Z,70.27
2023-01-19T06:21:32.637Z,71.54
2023-01-19T06:23:59.192Z,71.71
2023-01-19T06:26:26.395Z,71.36
2023-01-19T06:28:53.092Z,72.04
2023-01-19T06:31:19.828Z,72.85
2023-01-19T06:33:46.858Z,72.61
2023-01-19T06:36:13.466Z,73.17
2023-01-19T06:38:40.324Z,72.34
2023-01-19T06:41:07.078Z,71.85
2023-01-19T06:43:33.674Z,71.29
2023-01-19T06:46:04.061Z,71.30
2023-01-19T06:48:30.868Z,71.31
2023-01-19T06:50:59.512Z,70.85
2023-01-19T06:53:28.100Z,72.65
2023-01-19T06:55:59.067Z,71.59
2023-01-19T06:58:26.133Z,71.58
2023-01-19T07:00:52.899Z,71.06
2023-01-19T07:03:22.082Z,71.54
2023-01-19T07:05:53.120Z,69.45
2023-01-19T07:08:19.860Z,70.39
2023-01-19T07:11:23.151Z,70.77
2023-01-19T07:13:34.325Z,70.21
2023-01-19T07:16:07.483Z,69.58
2023-01-19T07:18:35.698Z,68.15
2023-01-19T07:21:02.655Z,69.91
2023-01-19T07:23:32.463Z,69.55
2023-01-19T07:26:03.017Z,69.56
2023-01-19T07:28:31.092Z,69.10
2023-01-19T07:30:58.033Z,68.53
2023-01-19T07:33:28.014Z,69.34
2023-01-19T07:35:54.995Z,69.07
2023-01-19T07:38:21.803Z,69.44
2023-01-19T07:40:48.368Z,68.97
2023-01-19T07:43:15.548Z,69.04
2023-01-19T07:45:43.281Z,69.21
2023-01-19T07:48:10.064Z,68.72
2023-01-19T07:50:36.710Z,68.15
2023-01-19T07:53:08.121Z,69.08
2023-01-19T07:55:34.857Z,68.28
2023-01-19T07:58:01.463Z,68.55
2023-01-19T08:00:28.175Z,69.13
2023-01-19T08:03:00.187Z,69.76
2023-01-19T08:05:29.553Z,67.57
2023-01-19T08:08:00.564Z,66.74
2023-01-19T08:10:29.020Z,63.65
2023-01-19T08:12:57.483Z,64.95
2023-01-19T08:15:24.799Z,65.53
2023-01-19T08:18:02.618Z,65.47
2023-01-19T08:20:30.004Z,65.16
2023-01-19T08:23:00.427Z,66.97
2023-01-19T08:25:39.575Z,66.90
2023-01-19T08:28:07.272Z,68.44
2023-01-19T08:30:34.296Z,67.20
2023-01-19T08:33:09.529Z,68.39
2023-01-19T08:35:41.832Z,67.63
2023-01-19T08:38:09.885Z,67.52
2023-01-19T08:40:39.184Z,67.53
2023-01-19T08:43:08.939Z,67.50
2023-01-19T08:45:37.527Z,68.12
2023-01-19T08:48:06.241Z,69.70
2023-01-19T08:50:33.943Z,69.05
2023-01-19T08:53:02.836Z,68.46
2023-01-19T08:55:30.288Z,69.22
2023-01-19T08:58:00.196Z,68.46
2023-01-19T09:00:27.680Z,67.98
2023-01-19T09:02:54.805Z,67.83
2023-01-19T09:05:21.442Z,67.40
2023-01-19T09:07:48.494Z,67.16
2023-01-19T09:10:16.001Z,67.02
2023-01-19T09:12:43.911Z,67.33
2023-01-19T09:15:14.052Z,66.31
2023-01-19T09:17:44.601Z,66.29
2023-01-19T09:20:11.577Z,67.19
2023-01-19T09:22:39.838Z,67.69
2023-01-19T09:25:07.815Z,67.43
2023-01-19T09:27:34.873Z,65.89
2023-01-19T09:30:01.817Z,64.80
2023-01-19T09:32:28.398Z,65.18
2023-01-19T09:34:56.503Z,64.04
2023-01-19T09:37:23.276Z,64.05
2023-01-19T09:39:49.919Z,65.22
2023-01-19T09:42:26.662Z,66.09
2023-01-19T09:44:54.516Z,64.69
2023-01-19T09:47:27.536Z,64.67
2023-01-19T09:50:01.226Z,64.15
2023-01-19T09:52:29.399Z,65.06
2023-01-19T09:54:57.802Z,64.39
2023-01-19T09:57:26.903Z,64.29
2023-01-19T09:59:59.740Z,64.23
2023-01-19T10:02:32.241Z,63.89
2023-01-19T10:05:02.947Z,63.63
2023-01-19T10:07:53.121Z,63.86
2023-01-19T10:10:32.159Z,62.85
2023-01-19T10:13:16.961Z,62.63
2023-01-19T10:16:04.188Z,62.62
2023-01-19T10:18:47.209Z,62.28
2023-01-19T10:21:19.558Z,61.32
2023-01-19T10:23:52.266Z,59.91
2023-01-19T10:26:27.515Z,61.82
2023-01-19T10:29:02.463Z,61.13
2023-01-19T10:31:29.215Z,61.90
2023-01-19T10:33:55.908Z,61.85
2023-01-19T10:36:29.882Z,62.39
2023-01-19T10:38:56.598Z,63.31
2023-01-19T10:41:42.993Z,63.60
2023-01-19T10:44:10.904Z,63.23
2023-01-19T10:46:44.047Z,63.72
2023-01-19T10:49:44.744Z,63.54
2023-01-19T10:52:44.882Z,63.87
2023-01-19T10:55:25.469Z,63.74
2023-01-19T10:57:53.642Z,63.89
2023-01-19T11:00:40.435Z,63.08
2023-01-19T11:03:31.921Z,62.58
2023-01-19T11:06:14.025Z,62.60
2023-01-19T11:08:41.550Z,62.62
2023-01-19T11:11:09.365Z,60.82
2023-01-19T11:13:36.484Z,61.50
2023-01-19T11:16:08.319Z,62.98
2023-01-19T11:18:38.465Z,61.93
2023-01-19T11:21:09.345Z,63.23
2023-01-19T11:23:42.975Z,62.49
2023-01-19T11:26:57.787Z,62.59
2023-01-19T11:29:26.763Z,62.18
2023-01-19T11:31:54.863Z,61.87
2023-01-19T11:34:34.876Z,60.56
2023-01-19T11:37:25.041Z,61.76
2023-01-19T11:39:55.098Z,61.66
2023-01-19T11:42:22.214Z,61.74
2023-01-19T11:45:17.927Z,60.50
2023-01-19T11:47:49.359Z,60.75
2023-01-19T11:50:23.303Z,60.50
2023-01-19T11:53:25.556Z,60.63
2023-01-19T11:55:57.038Z,61.55
2023-01-19T11:58:24.662Z,61.34
2023-01-19T12:01:27.748Z,61.80
2023-01-19T12:04:14.985Z,62.35
2023-01-19T12:06:47.846Z,62.71
2023-01-19T12:09:22.465Z,62.33
2023-01-19T12:12:09.108Z,61.85
2023-01-19T12:14:47.716Z,61.35
2023-01-19T12:17:26.133Z,61.27
2023-01-19T12:20:00.981Z,60.47
2023-01-19T12:22:29.981Z,62.40
2023-01-19T12:25:20.772Z,60.99
2023-01-19T12:27:49.775Z,62.19
2023-01-19T12:30:23.531Z,61.77
2023-01-19T12:32:51.492Z,61.92
2023-01-19T12:35:56.126Z,62.07
2023-01-19T12:38:53.832Z,60.57
2023-01-19T12:41:24.708Z,61.07
2023-01-19T12:44:10.467Z,60.90
2023-01-19T12:46:39.035Z,60.59
2023-01-19T12:49:13.368Z,61.47
2023-01-19T12:51:39.969Z,61.51
2023-01-19T12:54:08.712Z,61.16
2023-01-19T12:56:38.160Z,60.19
2023-01-19T12:59:05.482Z,59.55
2023-01-19T13:01:32.157Z,57.62
2023-01-19T13:04:02.419Z,58.42
2023-01-19T13:06:47.264Z,60.23
2023-01-19T13:09:33.246Z,60.31
2023-01-19T13:12:29.467Z,59.80
2023-01-19T13:15:28.539Z,57.19
2023-01-19T13:17:55.576Z,57.05
2023-01-19T13:20:43.609Z,57.52
2023-01-19T13:23:28.646Z,57.39
2023-01-19T13:26:06.893Z,55.70
2023-01-19T13:28:41.562Z,55.38
2023-01-19T13:31:10.371Z,56.00
2023-01-19T13:33:43.769Z,57.25
2023-01-19T13:36:30.608Z,58.02
2023-01-19T13:39:01.625Z,55.94
2023-01-19T13:41:35.624Z,53.12
2023-01-19T13:44:23.975Z,53.59
2023-01-19T13:46:52.809Z,54.86
2023-01-19T13:49:28.969Z,54.90
2023-01-19T13:52:07.668Z,54.06
2023-01-19T13:54:34.203Z,53.07
2023-01-19T13:57:00.848Z,53.28
2023-01-19T13:59:27.649Z,53.26
2023-01-19T14:01:54.514Z,52.76
2023-01-19T14:04:33.330Z,54.81
2023-01-19T14:07:06.148Z,55.54
2023-01-19T14:09:32.896Z,55.40
2023-01-19T14:12:14.178Z,54.99
2023-01-19T14:14:49.597Z,55.50
2023-01-19T14:17:25.069Z,54.47
2023-01-19T14:19:54.460Z,56.00
2023-01-19T14:22:21.268Z,55.55
2023-01-19T14:24:47.847Z,57.21
2023-01-19T14:27:22.938Z,57.07
2023-01-19T14:29:53.615Z,57.18
2023-01-19T14:32:24.847Z,57.99
2023-01-19T14:35:04.208Z,57.70
2023-01-19T14:37:33.912Z,58.22
2023-01-19T14:40:13.049Z,57.20
2023-01-19T14:43:03.298Z,58.66
2023-01-19T14:45:37.166Z,57.41
2023-01-19T14:48:07.174Z,56.25
2023-01-19T14:50:38.245Z,56.98
2023-01-19T14:53:16.562Z,57.15
2023-01-19T14:55:52.759Z,58.13
2023-01-19T14:58:21.446Z,60.02
2023-01-19T15:00:49.761Z,60.55
2023-01-19T15:03:17.051Z,60.58
2023-01-19T15:05:46.029Z,60.18
2023-01-19T15:08:20.026Z,61.22
2023-01-19T15:10:46.852Z,60.43
2023-01-19T15:13:20.737Z,60.81
2023-01-19T15:15:47.383Z,61.14
2023-01-19T15:18:17.383Z,59.81
2023-01-19T15:20:44.144Z,60.70
2023-01-19T15:23:11.689Z,61.17
2023-01-19T15:25:42.136Z,61.10
2023-01-19T15:28:13.979Z,60.68
2023-01-19T15:30:40.548Z,60.14
2023-01-19T15:33:11.285Z,59.88
2023-01-19T15:35:37.829Z,59.73
2023-01-19T15:38:04.429Z,60.54
2023-01-19T15:40:31.799Z,61.49
2023-01-19T15:42:58.539Z,62.42
2023-01-19T15:45:53.848Z,61.58
2023-01-19T15:48:22.670Z,62.44
2023-01-19T15:50:49.276Z,63.25
2023-01-19T15:53:18.423Z,64.23
2023-01-19T15:55:49.643Z,64.48
2023-01-19T15:58:16.619Z,63.88
2023-01-19T16:00:43.328Z,62.92
2023-01-19T16:03:11.075Z,63.28
2023-01-19T16:05:43.192Z,64.61
2023-01-19T16:08:11.560Z,64.65
2023-01-19T16:10:38.186Z,65.56
2023-01-19T16:13:04.737Z,65.28
2023-01-19T16:15:32.501Z,65.54
2023-01-19T16:17:59.196Z,65.45
2023-01-19T16:20:26.184Z,65.83
2023-01-19T16:22:54.956Z,66.18
2023-01-19T16:25:23.685Z,66.53
2023-01-19T16:27:50.555Z,67.79
2023-01-19T16:30:19.658Z,66.30
2023-01-19T16:32:46.968Z,65.51
2023-01-19T16:35:15.525Z,65.64
2023-01-19T16:37:42.572Z,66.07
2023-01-19T16:40:09.968Z,67.11
2023-01-19T16:42:36.615Z,64.39
2023-01-19T16:45:03.386Z,65.12
2023-01-19T16:47:30.070Z,66.71
2023-01-19T16:49:56.619Z,66.00
2023-01-19T16:52:23.434Z,66.13
2023-01-19T16:54:50.130Z,67.18
2023-01-19T16:57:16.841Z,66.04
2023-01-19T16:59:45.169Z,66.86
2023-01-19T17:02:11.921Z,65.75
2023-01-19T17:04:38.556Z,68.87
2023-01-19T17:07:05.200Z,67.54
2023-01-19T17:09:31.993Z,69.05
2023-01-19T17:11:58.584Z,68.71
2023-01-19T17:14:25.290Z,69.42
2023-01-19T17:16:51.997Z,67.84
2023-01-19T17:19:20.793Z,68.31
2023-01-19T17:21:49.043Z,68.92
2023-01-19T17:24:16.213Z,67.62
2023-01-19T17:26:43.415Z,68.35
2023-01-19T17:29:10.580Z,67.96
2023-01-19T17:31:37.901Z,68.54
2023-01-19T17:34:05.099Z,68.89
2023-01-19T17:36:32.907Z,68.44
2023-01-19T17:39:01.274Z,69.57
2023-01-19T17:41:30.737Z,68.24
2023-01-19T17:43:59.430Z,68.23
2023-01-19T17:46:28.001Z,67.74
2023-01-19T17:49:01.859Z,68.77
2023-01-19T17:51:29.543Z,68.59
2023-01-19T17:53:57.042Z,68.81
2023-01-19T17:56:28.428Z,68.83
2023-01-19T17:58:58.348Z,67.90
2023-01-19T18:01:28.549Z,68.75
2023-01-19T18:03:55.726Z,68.39
2023-01-19T18:06:22.571Z,68.45
2023-01-19T18:08:50.415Z,69.10
2023-01-19T18:11:19.687Z,68.92
2023-01-19T18:13:48.365Z,69.47
2023-01-19T18:16:19.778Z,70.02
2023-01-19T18:18:46.393Z,69.46
2023-01-19T18:21:14.606Z,70.21
2023-01-19T18:23:43.504Z,69.74
2023-01-19T18:26:12.598Z,67.81
2023-01-19T18:28:39.535Z,68.03
2023-01-19T18:31:08.116Z,68.18
2023-01-19T18:33:34.948Z,68.65
2023-01-19T18:36:01.811Z,69.04
2023-01-19T18:38:28.631Z,70.95
2023-01-19T18:41:05.333Z,71.21
2023-01-19T18:43:32.645Z,68.79
2023-01-19T18:45:59.445Z,68.71
2023-01-19T18:48:26.372Z,67.47
2023-01-19T18:50:53.794Z,70.13
2023-01-19T18:53:20.939Z,69.81
2023-01-19T18:55:55.860Z,71.34
2023-01-19T18:58:23.543Z,70.60
2023-01-19T19:00:50.480Z,70.00
2023-01-19T19:03:17.874Z,70.73
2023-01-19T19:05:44.595Z,70.97
2023-01-19T19:08:11.475Z,69.64
2023-01-19T19:10:40.746Z,70.42
2023-01-19T19:13:08.471Z,69.22
2023-01-19T19:15:35.199Z,71.18
2023-01-19T19:18:01.941Z,70.64
2023-01-19T19:20:28.553Z,69.62
2023-01-19T19:22:56.119Z,71.85
2023-01-19T19:25:23.260Z,71.61
2023-01-19T19:27:53.019Z,71.32
2023-01-19T19:30:20.743Z,70.74
2023-01-19T19:32:56.057Z,70.21
2023-01-19T19:35:26.001Z,70.09
2023-01-19T19:37:57.762Z,70.16
2023-01-19T19:40:28.518Z,69.75
2023-01-19T19:42:58.320Z,69.93
2023-01-19T19:45:25.496Z,68.16
2023-01-19T19:47:52.219Z,67.95
2023-01-19T19:50:18.940Z,69.79
2023-01-19T19:52:45.827Z,68.10
2023-01-19T19:55:12.777Z,71.03
2023-01-19T19:57:39.573Z,73.17
2023-01-19T20:00:07.033Z,71.78
2023-01-19T20:02:33.629Z,72.11
2023-01-19T20:05:00.555Z,70.02
2023-01-19T20:07:27.263Z,72.16
2023-01-19T20:09:55.141Z,70.70
2023-01-19T20:12:21.930Z,70.14
2023-01-19T20:14:48.677Z,70.66
2023-01-19T20:17:15.631Z,69.94
2023-01-19T20:19:43.734Z,69.53
2023-01-19T20:22:10.778Z,70.88
2023-01-19T20:24:37.510Z,70.61
2023-01-19T20:27:04.279Z,72.04
2023-01-19T20:29:30.953Z,70.81
2023-01-19T20:31:57.756Z,71.21
2023-01-19T20:34:28.126Z,73.41
2023-01-19T20:36:55.554Z,72.48
2023-01-19T20:39:23.410Z,72.54
2023-01-19T20:41:51.420Z,72.04
2023-01-19T20:44:23.587Z,71.29
2023-01-19T20:46:51.127Z,70.72
2023-01-19T20:49:19.263Z,71.60
2023-01-19T20:51:47.118Z,71.46
2023-01-19T20:54:17.105Z,71.14
2023-01-19T20:56:44.027Z,71.26
2023-01-19T20:59:12.018Z,70.27
2023-01-19T21:01:40.215Z,70.48
2023-01-19T21:04:07.345Z,70.15
2023-01-19T21:06:34.607Z,70.16
2023-01-19T21:09:01.386Z,70.97
2023-01-19T21:11:28.288Z,71.35
2023-01-19T21:13:57.774Z,71.31
2023-01-19T21:16:29.824Z,71.03
2023-01-19T21:18:56.503Z,71.61
2023-01-19T21:21:30.745Z,72.38
2023-01-19T21:23:58.833Z,71.23
2023-01-19T21:26:25.656Z,72.29
2023-01-19T21:28:52.292Z,73.04
2023-01-19T21:31:19.117Z,72.41
2023-01-19T21:33:45.881Z,72.37
2023-01-19T21:36:12.430Z,70.81
2023-01-19T21:38:39.524Z,71.67
2023-01-19T21:41:12.557Z,72.94
2023-01-19T21:43:40.992Z,72.26
2023-01-19T21:46:19.518Z,72.36
2023-01-19T21:48:46.976Z,73.53
2023-01-19T21:51:14.787Z,72.71
2023-01-19T21:53:42.418Z,72.15
2023-01-19T21:56:10.590Z,73.55
2023-01-19T21:58:37.665Z,72.62
2023-01-19T22:01:07.352Z,71.18
2023-01-19T22:03:34.195Z,72.03
2023-01-19T22:06:12.774Z,73.90
2023-01-19T22:08:40.136Z,72.74
2023-01-19T22:11:08.693Z,72.29
2023-01-19T22:13:38.656Z,72.72
2023-01-19T22:16:08.799Z,72.18
2023-01-19T22:18:36.232Z,72.20
2023-01-19T22:21:17.957Z,71.24
2023-01-19T22:23:47.683Z,70.66
2023-01-19T22:26:14.274Z,70.74
2023-01-19T22:28:40.846Z,70.49
2023-01-19T22:31:08.838Z,71.40
2023-01-19T22:33:36.112Z,71.57
2023-01-19T22:36:19.896Z,71.55
2023-01-19T22:38:51.765Z,70.83
2023-01-19T22:41:25.928Z,72.67
2023-01-19T22:43:55.070Z,72.63
2023-01-19T22:46:23.875Z,71.78
2023-01-19T22:48:51.405Z,70.91
2023-01-19T22:51:19.695Z,71.83
2023-01-19T22:53:47.414Z,71.94
2023-01-19T22:56:20.165Z,72.83
2023-01-19T22:58:47.725Z,72.72
2023-01-19T23:01:17.396Z,71.28
2023-01-19T23:03:44.178Z,71.95
2023-01-19T23:06:13.796Z,72.39
2023-01-19T23:08:41.464Z,71.62
2023-01-19T23:11:20.207Z,72.47
2023-01-19T23:13:47.330Z,72.22
2023-01-19T23:16:14.270Z,71.39
2023-01-19T23:18:42.000Z,72.13
2023-01-19T23:21:12.452Z,71.07
2023-01-19T23:23:39.227Z,69.62
2023-01-19T23:26:19.600Z,68.94
2023-01-19T23:28:47.313Z,68.97
2023-01-19T23:31:22.747Z,67.27
2023-01-19T23:33:55.349Z,69.32
2023-01-19T23:36:24.095Z,70.87
2023-01-19T23:38:52.954Z,72.24
2023-01-19T23:41:20.135Z,72.02
2023-01-19T23:43:46.808Z,72.62
2023-01-19T23:46:14.703Z,73.07
2023-01-19T23:48:41.543Z,73.03
2023-01-19T23:51:16.915Z,72.90
2023-01-19T23:53:43.786Z,72.79
2023-01-19T23:56:17.624Z,73.53
2023-01-19T23:58:49.032Z,73.54
